Aviation Digital Data Service (ADDS)

Output produced by TAFs form (1020 UTC 21 October 2014)
found at http://aviationweather.gov/adds/tafs/
 
KRIL 210531Z 2106/2206 VRB03KT P6SM BKN100 
     FM211400 26006KT P6SM VCSH SCT050 BKN120 
     FM220200 20005KT P6SM OVC100 
     FM220500 VRB03KT P6SM BKN200